sensor_id;sensor_type;location;lat;lon;timestamp;P1;durP1;ratioP1;P2;durP2;ratioP2
21258;SDS011;10787;53.364;-1.480;2023-04-03T00:01:59;14.37;;;5.77;;
21258;SDS011;10787;53.364;-1.480;2023-04-03T00:04:44;10.60;;;5.30;;
21258;SDS011;10787;53.364;-1.480;2023-04-03T00:07:28;11.83;;;5.57;;
21258;SDS011;10787;53.364;-1.480;2023-04-03T00:10:12;16.50;;;5.97;;
21258;SDS011;10787;53.364;-1.480;2023-04-03T00:12:57;12.57;;;5.30;;
21258;SDS011;10787;53.364;-1.480;2023-04-03T00:15:41;12.43;;;5.60;;
21258;SDS011;10787;53.364;-1.480;2023-04-03T00:18:25;11.93;;;5.80;;
21258;SDS011;10787;53.364;-1.480;2023-04-03T00:21:11;10.50;;;5.30;;
21258;SDS011;10787;53.364;-1.480;2023-04-03T00:23:56;13.07;;;5.30;;
21258;SDS011;10787;53.364;-1.480;2023-04-03T00:26:40;13.97;;;5.03;;
21258;SDS011;10787;53.364;-1.480;2023-04-03T00:29:25;11.60;;;5.47;;
21258;SDS011;10787;53.364;-1.480;2023-04-03T00:32:08;10.90;;;5.40;;
21258;SDS011;10787;53.364;-1.480;2023-04-03T00:34:53;11.97;;;4.93;;
21258;SDS011;10787;53.364;-1.480;2023-04-03T00:37:37;10.63;;;5.27;;
21258;SDS011;10787;53.364;-1.480;2023-04-03T00:40:22;12.63;;;5.27;;
21258;SDS011;10787;53.364;-1.480;2023-04-03T00:43:11;12.03;;;5.57;;
21258;SDS011;10787;53.364;-1.480;2023-04-03T00:46:00;11.87;;;5.10;;
21258;SDS011;10787;53.364;-1.480;2023-04-03T00:48:45;10.37;;;5.13;;
21258;SDS011;10787;53.364;-1.480;2023-04-03T00:51:30;10.13;;;4.83;;
21258;SDS011;10787;53.364;-1.480;2023-04-03T00:54:15;9.47;;;4.43;;
21258;SDS011;10787;53.364;-1.480;2023-04-03T00:56:59;10.73;;;4.87;;
21258;SDS011;10787;53.364;-1.480;2023-04-03T00:59:44;11.37;;;4.83;;
21258;SDS011;10787;53.364;-1.480;2023-04-03T01:02:34;9.53;;;4.40;;
21258;SDS011;10787;53.364;-1.480;2023-04-03T01:05:19;7.93;;;4.30;;
21258;SDS011;10787;53.364;-1.480;2023-04-03T01:08:04;10.40;;;4.40;;
21258;SDS011;10787;53.364;-1.480;2023-04-03T01:10:49;9.27;;;4.17;;
21258;SDS011;10787;53.364;-1.480;2023-04-03T01:13:34;9.93;;;3.93;;
21258;SDS011;10787;53.364;-1.480;2023-04-03T01:16:18;10.77;;;4.33;;
21258;SDS011;10787;53.364;-1.480;2023-04-03T01:19:03;7.33;;;4.17;;
21258;SDS011;10787;53.364;-1.480;2023-04-03T01:24:46;10.37;;;4.27;;
21258;SDS011;10787;53.364;-1.480;2023-04-03T01:27:31;11.47;;;4.20;;
21258;SDS011;10787;53.364;-1.480;2023-04-03T01:30:16;8.83;;;4.03;;
21258;SDS011;10787;53.364;-1.480;2023-04-03T01:33:02;11.13;;;4.83;;
21258;SDS011;10787;53.364;-1.480;2023-04-03T01:35:47;10.33;;;4.27;;
21258;SDS011;10787;53.364;-1.480;2023-04-03T01:38:31;8.77;;;4.27;;
21258;SDS011;10787;53.364;-1.480;2023-04-03T01:41:16;7.83;;;3.87;;
21258;SDS011;10787;53.364;-1.480;2023-04-03T01:44:01;10.63;;;3.70;;
21258;SDS011;10787;53.364;-1.480;2023-04-03T01:46:47;10.97;;;4.00;;
21258;SDS011;10787;53.364;-1.480;2023-04-03T01:49:31;8.87;;;3.90;;
21258;SDS011;10787;53.364;-1.480;2023-04-03T01:52:22;10.40;;;4.27;;
21258;SDS011;10787;53.364;-1.480;2023-04-03T01:55:26;7.37;;;3.93;;
21258;SDS011;10787;53.364;-1.480;2023-04-03T01:58:10;9.83;;;4.20;;
21258;SDS011;10787;53.364;-1.480;2023-04-03T02:00:54;8.43;;;4.30;;
21258;SDS011;10787;53.364;-1.480;2023-04-03T02:03:39;9.33;;;4.40;;
21258;SDS011;10787;53.364;-1.480;2023-04-03T02:06:23;8.87;;;3.87;;
21258;SDS011;10787;53.364;-1.480;2023-04-03T02:09:08;8.87;;;4.10;;
21258;SDS011;10787;53.364;-1.480;2023-04-03T02:11:53;8.93;;;4.00;;
21258;SDS011;10787;53.364;-1.480;2023-04-03T02:14:37;8.30;;;4.00;;
21258;SDS011;10787;53.364;-1.480;2023-04-03T02:17:21;8.77;;;3.77;;
21258;SDS011;10787;53.364;-1.480;2023-04-03T02:20:06;8.53;;;3.70;;
21258;SDS011;10787;53.364;-1.480;2023-04-03T02:22:51;8.10;;;4.20;;
21258;SDS011;10787;53.364;-1.480;2023-04-03T02:25:35;8.83;;;4.00;;
21258;SDS011;10787;53.364;-1.480;2023-04-03T02:28:19;7.47;;;3.53;;
21258;SDS011;10787;53.364;-1.480;2023-04-03T02:31:04;9.90;;;3.87;;
21258;SDS011;10787;53.364;-1.480;2023-04-03T02:33:52;8.60;;;4.20;;
21258;SDS011;10787;53.364;-1.480;2023-04-03T02:36:36;11.20;;;4.43;;
21258;SDS011;10787;53.364;-1.480;2023-04-03T02:39:21;9.03;;;4.23;;
21258;SDS011;10787;53.364;-1.480;2023-04-03T02:42:06;10.23;;;4.00;;
21258;SDS011;10787;53.364;-1.480;2023-04-03T02:44:50;12.07;;;4.10;;
21258;SDS011;10787;53.364;-1.480;2023-04-03T02:47:34;9.73;;;4.00;;
21258;SDS011;10787;53.364;-1.480;2023-04-03T02:50:19;10.83;;;4.00;;
21258;SDS011;10787;53.364;-1.480;2023-04-03T02:53:03;9.20;;;3.93;;
21258;SDS011;10787;53.364;-1.480;2023-04-03T02:55:48;10.17;;;3.73;;
21258;SDS011;10787;53.364;-1.480;2023-04-03T02:58:33;9.43;;;4.27;;
21258;SDS011;10787;53.364;-1.480;2023-04-03T03:01:17;12.73;;;4.10;;
21258;SDS011;10787;53.364;-1.480;2023-04-03T03:04:02;8.87;;;3.97;;
21258;SDS011;10787;53.364;-1.480;2023-04-03T03:06:47;10.90;;;3.70;;
21258;SDS011;10787;53.364;-1.480;2023-04-03T03:09:31;10.67;;;4.00;;
21258;SDS011;10787;53.364;-1.480;2023-04-03T03:12:16;10.40;;;4.60;;
21258;SDS011;10787;53.364;-1.480;2023-04-03T03:15:05;13.50;;;4.37;;
21258;SDS011;10787;53.364;-1.480;2023-04-03T03:17:50;11.03;;;4.33;;
21258;SDS011;10787;53.364;-1.480;2023-04-03T03:20:34;12.23;;;4.40;;
21258;SDS011;10787;53.364;-1.480;2023-04-03T03:23:19;9.27;;;4.17;;
21258;SDS011;10787;53.364;-1.480;2023-04-03T03:26:05;10.60;;;4.90;;
21258;SDS011;10787;53.364;-1.480;2023-04-03T03:28:51;9.60;;;4.33;;
21258;SDS011;10787;53.364;-1.480;2023-04-03T03:31:36;10.03;;;4.30;;
21258;SDS011;10787;53.364;-1.480;2023-04-03T03:34:20;10.17;;;4.47;;
21258;SDS011;10787;53.364;-1.480;2023-04-03T03:37:04;9.80;;;4.20;;
21258;SDS011;10787;53.364;-1.480;2023-04-03T03:39:49;9.67;;;4.20;;
21258;SDS011;10787;53.364;-1.480;2023-04-03T03:42:33;8.13;;;4.50;;
21258;SDS011;10787;53.364;-1.480;2023-04-03T03:45:17;10.40;;;4.50;;
21258;SDS011;10787;53.364;-1.480;2023-04-03T03:48:02;9.83;;;4.30;;
21258;SDS011;10787;53.364;-1.480;2023-04-03T03:50:47;11.27;;;4.53;;
21258;SDS011;10787;53.364;-1.480;2023-04-03T03:53:32;11.17;;;4.30;;
21258;SDS011;10787;53.364;-1.480;2023-04-03T03:56:16;14.47;;;4.03;;
21258;SDS011;10787;53.364;-1.480;2023-04-03T03:59:01;8.33;;;4.20;;
21258;SDS011;10787;53.364;-1.480;2023-04-03T04:01:46;8.63;;;4.00;;
21258;SDS011;10787;53.364;-1.480;2023-04-03T04:04:30;9.77;;;3.93;;
21258;SDS011;10787;53.364;-1.480;2023-04-03T04:07:14;8.10;;;4.23;;
21258;SDS011;10787;53.364;-1.480;2023-04-03T04:09:58;8.13;;;4.10;;
21258;SDS011;10787;53.364;-1.480;2023-04-03T04:12:43;10.43;;;4.40;;
21258;SDS011;10787;53.364;-1.480;2023-04-03T04:15:27;8.50;;;3.90;;
21258;SDS011;10787;53.364;-1.480;2023-04-03T04:18:12;13.10;;;4.30;;
21258;SDS011;10787;53.364;-1.480;2023-04-03T04:20:56;9.30;;;4.20;;
21258;SDS011;10787;53.364;-1.480;2023-04-03T04:23:41;8.77;;;3.90;;
21258;SDS011;10787;53.364;-1.480;2023-04-03T04:26:25;11.70;;;3.83;;
21258;SDS011;10787;53.364;-1.480;2023-04-03T04:29:09;7.23;;;3.90;;
21258;SDS011;10787;53.364;-1.480;2023-04-03T04:31:54;8.73;;;3.90;;
21258;SDS011;10787;53.364;-1.480;2023-04-03T04:34:38;9.37;;;3.90;;
21258;SDS011;10787;53.364;-1.480;2023-04-03T04:37:23;10.53;;;4.23;;
21258;SDS011;10787;53.364;-1.480;2023-04-03T04:40:07;11.00;;;4.47;;
21258;SDS011;10787;53.364;-1.480;2023-04-03T04:42:51;12.47;;;4.00;;
21258;SDS011;10787;53.364;-1.480;2023-04-03T04:45:36;7.77;;;3.87;;
21258;SDS011;10787;53.364;-1.480;2023-04-03T04:48:20;7.40;;;3.73;;
21258;SDS011;10787;53.364;-1.480;2023-04-03T04:51:04;12.70;;;4.07;;
21258;SDS011;10787;53.364;-1.480;2023-04-03T04:53:48;7.77;;;3.73;;
21258;SDS011;10787;53.364;-1.480;2023-04-03T04:56:32;9.30;;;3.80;;
21258;SDS011;10787;53.364;-1.480;2023-04-03T04:59:16;6.80;;;3.77;;
21258;SDS011;10787;53.364;-1.480;2023-04-03T05:02:01;10.33;;;4.30;;
21258;SDS011;10787;53.364;-1.480;2023-04-03T05:04:46;10.57;;;4.83;;
21258;SDS011;10787;53.364;-1.480;2023-04-03T05:07:30;10.63;;;4.30;;
21258;SDS011;10787;53.364;-1.480;2023-04-03T05:10:14;9.80;;;4.20;;
21258;SDS011;10787;53.364;-1.480;2023-04-03T05:12:59;8.73;;;4.27;;
21258;SDS011;10787;53.364;-1.480;2023-04-03T05:15:43;8.40;;;3.90;;
21258;SDS011;10787;53.364;-1.480;2023-04-03T05:18:27;9.90;;;4.30;;
21258;SDS011;10787;53.364;-1.480;2023-04-03T05:21:11;7.30;;;3.90;;
21258;SDS011;10787;53.364;-1.480;2023-04-03T05:24:03;11.07;;;3.87;;
21258;SDS011;10787;53.364;-1.480;2023-04-03T05:26:51;11.07;;;4.57;;
21258;SDS011;10787;53.364;-1.480;2023-04-03T05:29:37;9.00;;;4.20;;
21258;SDS011;10787;53.364;-1.480;2023-04-03T05:32:22;10.83;;;4.30;;
21258;SDS011;10787;53.364;-1.480;2023-04-03T05:35:16;13.50;;;4.57;;
21258;SDS011;10787;53.364;-1.480;2023-04-03T05:38:01;10.50;;;4.60;;
21258;SDS011;10787;53.364;-1.480;2023-04-03T05:40:45;9.03;;;3.93;;
21258;SDS011;10787;53.364;-1.480;2023-04-03T05:43:30;8.97;;;4.20;;
21258;SDS011;10787;53.364;-1.480;2023-04-03T05:46:17;9.67;;;4.10;;
21258;SDS011;10787;53.364;-1.480;2023-04-03T05:49:02;9.27;;;4.30;;
21258;SDS011;10787;53.364;-1.480;2023-04-03T05:51:47;13.63;;;4.50;;
21258;SDS011;10787;53.364;-1.480;2023-04-03T05:54:32;10.47;;;4.90;;
21258;SDS011;10787;53.364;-1.480;2023-04-03T05:57:16;8.63;;;4.30;;
21258;SDS011;10787;53.364;-1.480;2023-04-03T06:00:00;10.03;;;4.37;;
21258;SDS011;10787;53.364;-1.480;2023-04-03T06:02:46;13.27;;;4.17;;
21258;SDS011;10787;53.364;-1.480;2023-04-03T06:05:30;11.50;;;3.90;;
21258;SDS011;10787;53.364;-1.480;2023-04-03T06:08:15;11.07;;;4.27;;
21258;SDS011;10787;53.364;-1.480;2023-04-03T06:10:59;9.67;;;3.60;;
21258;SDS011;10787;53.364;-1.480;2023-04-03T06:13:45;7.37;;;3.60;;
21258;SDS011;10787;53.364;-1.480;2023-04-03T06:16:30;7.57;;;3.97;;
21258;SDS011;10787;53.364;-1.480;2023-04-03T06:19:14;8.60;;;4.10;;
21258;SDS011;10787;53.364;-1.480;2023-04-03T06:21:59;8.80;;;3.87;;
21258;SDS011;10787;53.364;-1.480;2023-04-03T06:24:43;9.40;;;3.90;;
21258;SDS011;10787;53.364;-1.480;2023-04-03T06:27:28;11.67;;;4.17;;
21258;SDS011;10787;53.364;-1.480;2023-04-03T06:30:12;9.70;;;4.10;;
21258;SDS011;10787;53.364;-1.480;2023-04-03T06:32:57;10.20;;;3.73;;
21258;SDS011;10787;53.364;-1.480;2023-04-03T06:35:43;7.90;;;4.13;;
21258;SDS011;10787;53.364;-1.480;2023-04-03T06:38:27;10.37;;;4.47;;
21258;SDS011;10787;53.364;-1.480;2023-04-03T06:41:11;10.67;;;4.20;;
21258;SDS011;10787;53.364;-1.480;2023-04-03T06:43:55;8.73;;;4.40;;
21258;SDS011;10787;53.364;-1.480;2023-04-03T06:46:42;8.80;;;4.20;;
21258;SDS011;10787;53.364;-1.480;2023-04-03T06:49:29;8.67;;;4.37;;
21258;SDS011;10787;53.364;-1.480;2023-04-03T06:52:13;9.77;;;4.93;;
21258;SDS011;10787;53.364;-1.480;2023-04-03T06:54:58;9.13;;;4.60;;
21258;SDS011;10787;53.364;-1.480;2023-04-03T06:57:43;7.77;;;4.20;;
21258;SDS011;10787;53.364;-1.480;2023-04-03T07:00:27;11.10;;;4.93;;
21258;SDS011;10787;53.364;-1.480;2023-04-03T07:03:12;10.47;;;4.90;;
21258;SDS011;10787;53.364;-1.480;2023-04-03T07:05:56;11.20;;;4.90;;
21258;SDS011;10787;53.364;-1.480;2023-04-03T07:08:41;9.57;;;4.50;;
21258;SDS011;10787;53.364;-1.480;2023-04-03T07:11:26;8.77;;;5.17;;
21258;SDS011;10787;53.364;-1.480;2023-04-03T07:14:11;13.87;;;4.70;;
21258;SDS011;10787;53.364;-1.480;2023-04-03T07:16:55;10.17;;;4.93;;
21258;SDS011;10787;53.364;-1.480;2023-04-03T07:19:39;16.73;;;6.90;;
21258;SDS011;10787;53.364;-1.480;2023-04-03T07:22:24;13.73;;;5.27;;
21258;SDS011;10787;53.364;-1.480;2023-04-03T07:25:08;11.17;;;5.27;;
21258;SDS011;10787;53.364;-1.480;2023-04-03T07:27:54;11.83;;;5.63;;
21258;SDS011;10787;53.364;-1.480;2023-04-03T07:30:48;13.40;;;5.60;;
21258;SDS011;10787;53.364;-1.480;2023-04-03T07:33:35;10.83;;;5.20;;
21258;SDS011;10787;53.364;-1.480;2023-04-03T07:36:21;12.07;;;5.93;;
21258;SDS011;10787;53.364;-1.480;2023-04-03T07:39:06;12.73;;;5.60;;
21258;SDS011;10787;53.364;-1.480;2023-04-03T07:41:51;11.13;;;5.60;;
21258;SDS011;10787;53.364;-1.480;2023-04-03T07:44:35;13.33;;;6.67;;
21258;SDS011;10787;53.364;-1.480;2023-04-03T07:47:20;10.73;;;5.80;;
21258;SDS011;10787;53.364;-1.480;2023-04-03T07:50:05;11.90;;;5.80;;
21258;SDS011;10787;53.364;-1.480;2023-04-03T07:52:50;12.93;;;5.97;;
21258;SDS011;10787;53.364;-1.480;2023-04-03T07:55:36;11.77;;;5.73;;
21258;SDS011;10787;53.364;-1.480;2023-04-03T07:58:26;14.57;;;6.63;;
21258;SDS011;10787;53.364;-1.480;2023-04-03T08:01:10;11.77;;;6.50;;
21258;SDS011;10787;53.364;-1.480;2023-04-03T08:03:55;18.10;;;6.50;;
21258;SDS011;10787;53.364;-1.480;2023-04-03T08:06:39;14.07;;;6.10;;
21258;SDS011;10787;53.364;-1.480;2023-04-03T08:09:23;15.43;;;6.27;;
21258;SDS011;10787;53.364;-1.480;2023-04-03T08:12:07;12.10;;;6.33;;
21258;SDS011;10787;53.364;-1.480;2023-04-03T08:14:55;12.13;;;5.83;;
21258;SDS011;10787;53.364;-1.480;2023-04-03T08:17:39;11.47;;;5.00;;
21258;SDS011;10787;53.364;-1.480;2023-04-03T08:20:24;10.33;;;4.63;;
21258;SDS011;10787;53.364;-1.480;2023-04-03T08:23:08;10.80;;;4.10;;
21258;SDS011;10787;53.364;-1.480;2023-04-03T08:25:53;10.57;;;4.10;;
21258;SDS011;10787;53.364;-1.480;2023-04-03T08:28:37;12.37;;;4.37;;
21258;SDS011;10787;53.364;-1.480;2023-04-03T08:31:23;11.37;;;4.37;;
21258;SDS011;10787;53.364;-1.480;2023-04-03T08:34:08;11.47;;;4.47;;
21258;SDS011;10787;53.364;-1.480;2023-04-03T08:36:53;8.63;;;2.90;;
21258;SDS011;10787;53.364;-1.480;2023-04-03T08:39:37;8.50;;;1.93;;
21258;SDS011;10787;53.364;-1.480;2023-04-03T08:45:48;5.03;;;1.77;;
21258;SDS011;10787;53.364;-1.480;2023-04-03T08:48:40;7.27;;;1.73;;
21258;SDS011;10787;53.364;-1.480;2023-04-03T08:51:26;4.87;;;1.83;;
21258;SDS011;10787;53.364;-1.480;2023-04-03T08:54:18;4.93;;;1.50;;
21258;SDS011;10787;53.364;-1.480;2023-04-03T08:57:16;7.07;;;1.43;;
21258;SDS011;10787;53.364;-1.480;2023-04-03T09:00:09;6.37;;;1.60;;
21258;SDS011;10787;53.364;-1.480;2023-04-03T09:02:58;6.93;;;1.63;;
21258;SDS011;10787;53.364;-1.480;2023-04-03T09:05:57;6.90;;;2.10;;
21258;SDS011;10787;53.364;-1.480;2023-04-03T09:09:30;6.80;;;1.70;;
21258;SDS011;10787;53.364;-1.480;2023-04-03T09:12:06;6.47;;;1.70;;
21258;SDS011;10787;53.364;-1.480;2023-04-03T09:15:14;8.47;;;2.20;;
21258;SDS011;10787;53.364;-1.480;2023-04-03T09:24:15;10.93;;;2.60;;
21258;SDS011;10787;53.364;-1.480;2023-04-03T09:27:01;6.20;;;1.90;;
21258;SDS011;10787;53.364;-1.480;2023-04-03T09:29:50;7.53;;;2.30;;
21258;SDS011;10787;53.364;-1.480;2023-04-03T09:32:40;4.93;;;2.10;;
21258;SDS011;10787;53.364;-1.480;2023-04-03T09:35:27;7.83;;;2.10;;
21258;SDS011;10787;53.364;-1.480;2023-04-03T09:38:14;4.40;;;1.80;;
21258;SDS011;10787;53.364;-1.480;2023-04-03T09:43:54;8.77;;;2.20;;
21258;SDS011;10787;53.364;-1.480;2023-04-03T09:46:38;6.87;;;1.60;;
21258;SDS011;10787;53.364;-1.480;2023-04-03T09:49:23;5.90;;;1.93;;
21258;SDS011;10787;53.364;-1.480;2023-04-03T09:52:22;5.20;;;1.40;;
21258;SDS011;10787;53.364;-1.480;2023-04-03T09:55:13;5.97;;;1.90;;
21258;SDS011;10787;53.364;-1.480;2023-04-03T09:58:00;11.50;;;1.90;;
21258;SDS011;10787;53.364;-1.480;2023-04-03T10:00:53;6.87;;;1.53;;
21258;SDS011;10787;53.364;-1.480;2023-04-03T10:03:42;6.30;;;1.93;;
21258;SDS011;10787;53.364;-1.480;2023-04-03T10:06:31;5.10;;;1.93;;
21258;SDS011;10787;53.364;-1.480;2023-04-03T10:09:20;6.13;;;1.67;;
21258;SDS011;10787;53.364;-1.480;2023-04-03T10:12:15;5.37;;;1.70;;
21258;SDS011;10787;53.364;-1.480;2023-04-03T10:15:10;8.47;;;2.20;;
21258;SDS011;10787;53.364;-1.480;2023-04-03T10:18:02;5.40;;;1.80;;
21258;SDS011;10787;53.364;-1.480;2023-04-03T10:21:06;6.77;;;1.90;;
21258;SDS011;10787;53.364;-1.480;2023-04-03T10:24:13;5.50;;;2.00;;
21258;SDS011;10787;53.364;-1.480;2023-04-03T10:27:32;7.73;;;1.80;;
21258;SDS011;10787;53.364;-1.480;2023-04-03T10:30:51;6.40;;;1.80;;
21258;SDS011;10787;53.364;-1.480;2023-04-03T10:43:04;5.03;;;2.20;;
21258;SDS011;10787;53.364;-1.480;2023-04-03T10:46:02;8.70;;;2.57;;
21258;SDS011;10787;53.364;-1.480;2023-04-03T10:57:54;7.40;;;2.20;;
21258;SDS011;10787;53.364;-1.480;2023-04-03T11:00:45;4.77;;;2.17;;
21258;SDS011;10787;53.364;-1.480;2023-04-03T11:03:34;6.23;;;2.23;;
21258;SDS011;10787;53.364;-1.480;2023-04-03T11:06:25;7.13;;;2.20;;
21258;SDS011;10787;53.364;-1.480;2023-04-03T11:09:22;7.47;;;2.07;;
21258;SDS011;10787;53.364;-1.480;2023-04-03T11:12:15;4.47;;;2.20;;
21258;SDS011;10787;53.364;-1.480;2023-04-03T11:15:05;4.53;;;2.20;;
21258;SDS011;10787;53.364;-1.480;2023-04-03T11:17:55;7.93;;;2.00;;
21258;SDS011;10787;53.364;-1.480;2023-04-03T11:20:49;4.83;;;2.07;;
21258;SDS011;10787;53.364;-1.480;2023-04-03T11:24:03;6.20;;;2.07;;
21258;SDS011;10787;53.364;-1.480;2023-04-03T11:26:57;6.77;;;2.07;;
21258;SDS011;10787;53.364;-1.480;2023-04-03T11:29:44;5.03;;;2.10;;
21258;SDS011;10787;53.364;-1.480;2023-04-03T11:35:29;9.00;;;2.30;;
21258;SDS011;10787;53.364;-1.480;2023-04-03T11:38:36;7.90;;;2.67;;
21258;SDS011;10787;53.364;-1.480;2023-04-03T11:41:26;7.87;;;2.40;;
21258;SDS011;10787;53.364;-1.480;2023-04-03T11:47:59;5.00;;;2.20;;
21258;SDS011;10787;53.364;-1.480;2023-04-03T11:50:43;6.77;;;2.30;;
21258;SDS011;10787;53.364;-1.480;2023-04-03T11:53:33;6.80;;;2.20;;
21258;SDS011;10787;53.364;-1.480;2023-04-03T12:01:55;6.40;;;1.77;;
21258;SDS011;10787;53.364;-1.480;2023-04-03T12:04:42;7.97;;;2.05;;
21258;SDS011;10787;53.364;-1.480;2023-04-03T12:19:35;4.40;;;2.05;;
21258;SDS011;10787;53.364;-1.480;2023-04-03T12:22:23;6.80;;;2.17;;
21258;SDS011;10787;53.364;-1.480;2023-04-03T12:25:39;6.05;;;2.40;;
21258;SDS011;10787;53.364;-1.480;2023-04-03T12:28:37;7.00;;;2.72;;
21258;SDS011;10787;53.364;-1.480;2023-04-03T12:31:24;4.60;;;2.08;;
21258;SDS011;10787;53.364;-1.480;2023-04-03T12:37:39;9.18;;;2.20;;
21258;SDS011;10787;53.364;-1.480;2023-04-03T12:46:46;4.65;;;2.30;;
21258;SDS011;10787;53.364;-1.480;2023-04-03T12:49:37;6.10;;;2.40;;
21258;SDS011;10787;53.364;-1.480;2023-04-03T12:55:31;2.95;;;1.90;;
21258;SDS011;10787;53.364;-1.480;2023-04-03T12:58:20;5.85;;;2.15;;
21258;SDS011;10787;53.364;-1.480;2023-04-03T13:03:53;4.03;;;2.40;;
21258;SDS011;10787;53.364;-1.480;2023-04-03T13:06:41;6.80;;;2.58;;
21258;SDS011;10787;53.364;-1.480;2023-04-03T13:09:31;5.90;;;2.30;;
21258;SDS011;10787;53.364;-1.480;2023-04-03T13:12:16;6.72;;;2.58;;
21258;SDS011;10787;53.364;-1.480;2023-04-03T13:15:02;6.07;;;2.38;;
21258;SDS011;10787;53.364;-1.480;2023-04-03T13:17:57;5.20;;;2.28;;
21258;SDS011;10787;53.364;-1.480;2023-04-03T13:20:41;4.03;;;2.42;;
21258;SDS011;10787;53.364;-1.480;2023-04-03T13:23:25;6.20;;;2.22;;
21258;SDS011;10787;53.364;-1.480;2023-04-03T13:26:09;7.20;;;2.28;;
21258;SDS011;10787;53.364;-1.480;2023-04-03T13:28:57;7.97;;;3.28;;
21258;SDS011;10787;53.364;-1.480;2023-04-03T13:31:46;5.30;;;2.70;;
21258;SDS011;10787;53.364;-1.480;2023-04-03T13:34:38;4.78;;;2.25;;
21258;SDS011;10787;53.364;-1.480;2023-04-03T13:37:28;6.30;;;2.83;;
21258;SDS011;10787;53.364;-1.480;2023-04-03T13:40:14;3.85;;;2.33;;
21258;SDS011;10787;53.364;-1.480;2023-04-03T13:43:00;5.20;;;2.88;;
21258;SDS011;10787;53.364;-1.480;2023-04-03T13:48:56;5.30;;;2.30;;
21258;SDS011;10787;53.364;-1.480;2023-04-03T13:51:41;4.45;;;2.50;;
21258;SDS011;10787;53.364;-1.480;2023-04-03T13:54:33;3.83;;;2.13;;
21258;SDS011;10787;53.364;-1.480;2023-04-03T13:57:20;12.95;;;2.78;;
21258;SDS011;10787;53.364;-1.480;2023-04-03T14:00:22;7.40;;;2.78;;
21258;SDS011;10787;53.364;-1.480;2023-04-03T14:06:05;5.75;;;2.50;;
21258;SDS011;10787;53.364;-1.480;2023-04-03T14:08:50;5.85;;;2.60;;
21258;SDS011;10787;53.364;-1.480;2023-04-03T14:11:35;7.13;;;2.58;;
21258;SDS011;10787;53.364;-1.480;2023-04-03T14:14:21;5.97;;;2.30;;
21258;SDS011;10787;53.364;-1.480;2023-04-03T14:17:19;6.68;;;2.33;;
21258;SDS011;10787;53.364;-1.480;2023-04-03T14:20:05;3.97;;;2.30;;
21258;SDS011;10787;53.364;-1.480;2023-04-03T14:22:50;5.72;;;2.70;;
21258;SDS011;10787;53.364;-1.480;2023-04-03T14:25:35;5.45;;;2.67;;
21258;SDS011;10787;53.364;-1.480;2023-04-03T14:28:21;5.82;;;2.50;;
21258;SDS011;10787;53.364;-1.480;2023-04-03T14:31:06;10.23;;;2.55;;
21258;SDS011;10787;53.364;-1.480;2023-04-03T14:34:03;8.68;;;2.50;;
21258;SDS011;10787;53.364;-1.480;2023-04-03T14:36:47;6.22;;;2.60;;
21258;SDS011;10787;53.364;-1.480;2023-04-03T14:39:31;4.60;;;2.30;;
21258;SDS011;10787;53.364;-1.480;2023-04-03T14:42:18;6.50;;;2.53;;
21258;SDS011;10787;53.364;-1.480;2023-04-03T14:45:05;9.88;;;2.70;;
21258;SDS011;10787;53.364;-1.480;2023-04-03T14:47:53;5.03;;;2.25;;
21258;SDS011;10787;53.364;-1.480;2023-04-03T14:50:39;5.03;;;2.53;;
21258;SDS011;10787;53.364;-1.480;2023-04-03T14:53:23;6.03;;;2.55;;
21258;SDS011;10787;53.364;-1.480;2023-04-03T14:56:10;5.20;;;3.47;;
21258;SDS011;10787;53.364;-1.480;2023-04-03T14:58:59;5.15;;;2.50;;
21258;SDS011;10787;53.364;-1.480;2023-04-03T15:01:44;6.05;;;2.70;;
21258;SDS011;10787;53.364;-1.480;2023-04-03T15:04:28;4.65;;;2.47;;
21258;SDS011;10787;53.364;-1.480;2023-04-03T15:07:13;4.60;;;2.17;;
21258;SDS011;10787;53.364;-1.480;2023-04-03T15:09:57;4.80;;;2.50;;
21258;SDS011;10787;53.364;-1.480;2023-04-03T15:12:42;5.13;;;2.35;;
21258;SDS011;10787;53.364;-1.480;2023-04-03T15:15:28;4.57;;;2.50;;
21258;SDS011;10787;53.364;-1.480;2023-04-03T15:18:15;3.58;;;2.30;;
21258;SDS011;10787;53.364;-1.480;2023-04-03T15:21:09;8.00;;;2.70;;
21258;SDS011;10787;53.364;-1.480;2023-04-03T15:23:54;4.97;;;2.90;;
21258;SDS011;10787;53.364;-1.480;2023-04-03T15:26:38;4.90;;;2.65;;
21258;SDS011;10787;53.364;-1.480;2023-04-03T15:29:22;11.27;;;2.53;;
21258;SDS011;10787;53.364;-1.480;2023-04-03T15:32:07;3.85;;;2.40;;
21258;SDS011;10787;53.364;-1.480;2023-04-03T15:34:53;4.18;;;2.55;;
21258;SDS011;10787;53.364;-1.480;2023-04-03T15:37:37;3.63;;;2.30;;
21258;SDS011;10787;53.364;-1.480;2023-04-03T15:40:21;4.97;;;2.50;;
21258;SDS011;10787;53.364;-1.480;2023-04-03T15:43:06;3.47;;;2.42;;
21258;SDS011;10787;53.364;-1.480;2023-04-03T15:45:50;7.82;;;2.47;;
21258;SDS011;10787;53.364;-1.480;2023-04-03T15:48:35;4.45;;;2.45;;
21258;SDS011;10787;53.364;-1.480;2023-04-03T15:51:20;4.95;;;2.63;;
21258;SDS011;10787;53.364;-1.480;2023-04-03T15:54:05;3.35;;;2.60;;
21258;SDS011;10787;53.364;-1.480;2023-04-03T15:56:49;7.60;;;2.70;;
21258;SDS011;10787;53.364;-1.480;2023-04-03T15:59:34;4.85;;;2.60;;
21258;SDS011;10787;53.364;-1.480;2023-04-03T16:02:18;3.75;;;2.35;;
21258;SDS011;10787;53.364;-1.480;2023-04-03T16:05:03;6.35;;;2.80;;
21258;SDS011;10787;53.364;-1.480;2023-04-03T16:07:47;6.07;;;2.97;;
21258;SDS011;10787;53.364;-1.480;2023-04-03T16:10:31;4.50;;;2.60;;
21258;SDS011;10787;53.364;-1.480;2023-04-03T16:13:16;5.88;;;2.72;;
21258;SDS011;10787;53.364;-1.480;2023-04-03T16:16:01;4.18;;;2.70;;
21258;SDS011;10787;53.364;-1.480;2023-04-03T16:18:47;4.88;;;2.70;;
21258;SDS011;10787;53.364;-1.480;2023-04-03T16:21:32;4.53;;;3.20;;
21258;SDS011;10787;53.364;-1.480;2023-04-03T16:24:17;5.45;;;2.78;;
21258;SDS011;10787;53.364;-1.480;2023-04-03T16:27:01;6.05;;;2.85;;
21258;SDS011;10787;53.364;-1.480;2023-04-03T16:29:45;4.72;;;2.80;;
21258;SDS011;10787;53.364;-1.480;2023-04-03T16:32:30;7.60;;;2.92;;
21258;SDS011;10787;53.364;-1.480;2023-04-03T16:35:15;4.50;;;3.00;;
21258;SDS011;10787;53.364;-1.480;2023-04-03T16:37:59;3.80;;;2.70;;
21258;SDS011;10787;53.364;-1.480;2023-04-03T16:40:44;3.80;;;2.67;;
21258;SDS011;10787;53.364;-1.480;2023-04-03T16:43:29;5.75;;;2.80;;
21258;SDS011;10787;53.364;-1.480;2023-04-03T16:46:14;4.93;;;2.90;;
21258;SDS011;10787;53.364;-1.480;2023-04-03T16:48:59;5.03;;;2.88;;
21258;SDS011;10787;53.364;-1.480;2023-04-03T16:51:43;4.45;;;2.90;;
21258;SDS011;10787;53.364;-1.480;2023-04-03T16:54:27;4.45;;;3.22;;
21258;SDS011;10787;53.364;-1.480;2023-04-03T16:57:12;4.68;;;3.25;;
21258;SDS011;10787;53.364;-1.480;2023-04-03T16:59:57;3.72;;;2.78;;
21258;SDS011;10787;53.364;-1.480;2023-04-03T17:02:42;6.50;;;3.20;;
21258;SDS011;10787;53.364;-1.480;2023-04-03T17:05:26;5.50;;;3.28;;
21258;SDS011;10787;53.364;-1.480;2023-04-03T17:08:10;7.15;;;3.38;;
21258;SDS011;10787;53.364;-1.480;2023-04-03T17:10:55;4.68;;;3.05;;
21258;SDS011;10787;53.364;-1.480;2023-04-03T17:13:39;4.97;;;2.78;;
21258;SDS011;10787;53.364;-1.480;2023-04-03T17:16:23;5.10;;;3.00;;
21258;SDS011;10787;53.364;-1.480;2023-04-03T17:19:09;7.05;;;3.10;;
21258;SDS011;10787;53.364;-1.480;2023-04-03T17:21:55;5.63;;;3.50;;
21258;SDS011;10787;53.364;-1.480;2023-04-03T17:24:40;6.78;;;4.28;;
21258;SDS011;10787;53.364;-1.480;2023-04-03T17:27:24;7.20;;;3.50;;
21258;SDS011;10787;53.364;-1.480;2023-04-03T17:30:10;6.78;;;3.72;;
21258;SDS011;10787;53.364;-1.480;2023-04-03T17:32:54;6.07;;;3.63;;
21258;SDS011;10787;53.364;-1.480;2023-04-03T17:35:39;7.28;;;4.50;;
21258;SDS011;10787;53.364;-1.480;2023-04-03T17:38:23;8.07;;;4.13;;
21258;SDS011;10787;53.364;-1.480;2023-04-03T17:41:08;8.93;;;5.85;;
21258;SDS011;10787;53.364;-1.480;2023-04-03T17:43:52;8.02;;;3.92;;
21258;SDS011;10787;53.364;-1.480;2023-04-03T17:46:39;7.00;;;4.55;;